Attica Junction, Ohio
Current Conditions -  °F | °C
As of 12:52 AM on Thursday 23 Oct 2014 (Local Time) from KMFD Reporting Station
Overcast Overcast  
Wind Chill: 40°   Ceiling: 3300
Heat Index: 43°   Visibility: 10mi
Dew Point: 41°   Wind: 5mph
Humidity: 93%   Direction: 330°NNW
Pressure: 30.23"   Gusts: NA
Location:  41.0654°N, 82.876°W
Report Text: KMFD 230452Z 33004KT 10SM OVC033 06/05 A3023 RMK AO2 SLP242 T00610050 401000056
Loading
Personal Weather Stations






























Interactive Weather Map
Tropical Storm Tracking
New forecast layout! Learn more

10-Day Weather Forecast

Advertisements
Track Severe Weather on mobile